sensor_id;sensor_type;location;lat;lon;timestamp;pressure;altitude;pressure_sealevel;temperature;humidity
79138;BME280;68544;45.566;10.238;2023-04-30T00:00:43;99669.66;;;18.91;58.03
79138;BME280;68544;45.566;10.238;2023-04-30T00:03:08;99667.44;;;18.88;57.97
79138;BME280;68544;45.566;10.238;2023-04-30T00:05:33;99668.44;;;18.99;57.39
79138;BME280;68544;45.566;10.238;2023-04-30T00:07:59;99667.50;;;18.93;57.67
79138;BME280;68544;45.566;10.238;2023-04-30T00:10:24;99665.88;;;18.92;57.80
79138;BME280;68544;45.566;10.238;2023-04-30T00:12:49;99670.78;;;18.90;58.07
79138;BME280;68544;45.566;10.238;2023-04-30T00:15:15;99674.47;;;18.84;58.14
79138;BME280;68544;45.566;10.238;2023-04-30T00:17:40;99668.09;;;18.96;57.74
79138;BME280;68544;45.566;10.238;2023-04-30T00:20:06;99673.25;;;18.92;57.74
79138;BME280;68544;45.566;10.238;2023-04-30T00:22:32;99658.16;;;18.89;57.82
79138;BME280;68544;45.566;10.238;2023-04-30T00:24:57;99657.00;;;18.85;57.63
79138;BME280;68544;45.566;10.238;2023-04-30T00:27:23;99655.53;;;18.78;58.04
79138;BME280;68544;45.566;10.238;2023-04-30T00:29:48;99659.81;;;18.90;57.54
79138;BME280;68544;45.566;10.238;2023-04-30T00:32:13;99657.47;;;18.82;57.78
79138;BME280;68544;45.566;10.238;2023-04-30T00:34:39;99652.84;;;18.83;57.60
79138;BME280;68544;45.566;10.238;2023-04-30T00:37:04;99652.00;;;18.82;57.64
79138;BME280;68544;45.566;10.238;2023-04-30T00:39:30;99653.19;;;18.86;57.60
79138;BME280;68544;45.566;10.238;2023-04-30T00:41:55;99652.50;;;18.96;57.19
79138;BME280;68544;45.566;10.238;2023-04-30T00:44:20;99651.41;;;18.97;57.19
79138;BME280;68544;45.566;10.238;2023-04-30T00:46:46;99640.31;;;19.04;56.74
79138;BME280;68544;45.566;10.238;2023-04-30T00:49:11;99629.28;;;18.99;56.90
79138;BME280;68544;45.566;10.238;2023-04-30T00:51:39;99633.94;;;18.98;57.16
79138;BME280;68544;45.566;10.238;2023-04-30T00:54:05;99635.91;;;19.03;56.75
79138;BME280;68544;45.566;10.238;2023-04-30T00:56:31;99626.75;;;18.75;57.41
79138;BME280;68544;45.566;10.238;2023-04-30T00:58:56;99626.50;;;18.60;57.41
79138;BME280;68544;45.566;10.238;2023-04-30T01:01:24;99625.75;;;18.81;56.98
79138;BME280;68544;45.566;10.238;2023-04-30T01:03:49;99625.31;;;18.89;56.51
79138;BME280;68544;45.566;10.238;2023-04-30T01:06:15;99619.19;;;18.82;56.64
79138;BME280;68544;45.566;10.238;2023-04-30T01:08:40;99624.41;;;18.84;56.75
79138;BME280;68544;45.566;10.238;2023-04-30T01:14:09;99622.44;;;18.79;57.21
79138;BME280;68544;45.566;10.238;2023-04-30T01:16:45;99627.47;;;18.87;56.61
79138;BME280;68544;45.566;10.238;2023-04-30T01:21:52;99628.81;;;18.68;57.50
79138;BME280;68544;45.566;10.238;2023-04-30T01:24:42;99631.88;;;18.88;56.50
79138;BME280;68544;45.566;10.238;2023-04-30T01:29:55;99638.50;;;18.92;56.50
79138;BME280;68544;45.566;10.238;2023-04-30T01:32:20;99642.41;;;18.97;56.22
79138;BME280;68544;45.566;10.238;2023-04-30T01:34:46;99642.00;;;18.88;56.25
79138;BME280;68544;45.566;10.238;2023-04-30T01:45:44;99626.31;;;18.83;56.02
79138;BME280;68544;45.566;10.238;2023-04-30T01:53:32;99632.94;;;18.87;55.81
79138;BME280;68544;45.566;10.238;2023-04-30T01:56:02;99629.75;;;18.74;56.44
79138;BME280;68544;45.566;10.238;2023-04-30T01:58:29;99619.88;;;18.73;56.58
79138;BME280;68544;45.566;10.238;2023-04-30T02:00:54;99628.66;;;18.75;56.59
79138;BME280;68544;45.566;10.238;2023-04-30T02:03:20;99622.19;;;18.64;56.87
79138;BME280;68544;45.566;10.238;2023-04-30T02:05:46;99621.03;;;18.60;57.33
79138;BME280;68544;45.566;10.238;2023-04-30T02:08:12;99627.75;;;18.53;57.41
79138;BME280;68544;45.566;10.238;2023-04-30T02:10:37;99626.34;;;18.50;57.89
79138;BME280;68544;45.566;10.238;2023-04-30T02:13:03;99619.31;;;18.43;58.31
79138;BME280;68544;45.566;10.238;2023-04-30T02:15:28;99614.19;;;18.30;58.78
79138;BME280;68544;45.566;10.238;2023-04-30T02:17:53;99620.41;;;18.42;58.47
79138;BME280;68544;45.566;10.238;2023-04-30T02:20:19;99617.94;;;18.40;57.90
79138;BME280;68544;45.566;10.238;2023-04-30T02:22:44;99625.16;;;18.46;57.96
79138;BME280;68544;45.566;10.238;2023-04-30T02:25:09;99627.50;;;18.54;57.34
79138;BME280;68544;45.566;10.238;2023-04-30T02:27:37;99616.00;;;18.41;58.14
79138;BME280;68544;45.566;10.238;2023-04-30T02:30:03;99620.50;;;18.47;58.15
79138;BME280;68544;45.566;10.238;2023-04-30T02:32:28;99617.31;;;18.38;58.39
79138;BME280;68544;45.566;10.238;2023-04-30T02:34:54;99626.00;;;18.19;59.08
79138;BME280;68544;45.566;10.238;2023-04-30T02:37:19;99624.13;;;18.36;58.36
79138;BME280;68544;45.566;10.238;2023-04-30T02:39:45;99629.25;;;18.32;58.45
79138;BME280;68544;45.566;10.238;2023-04-30T02:42:10;99618.06;;;18.17;59.09
79138;BME280;68544;45.566;10.238;2023-04-30T02:44:36;99617.97;;;18.12;59.23
79138;BME280;68544;45.566;10.238;2023-04-30T02:47:02;99623.44;;;18.12;59.23
79138;BME280;68544;45.566;10.238;2023-04-30T02:49:27;99621.28;;;18.14;59.28
79138;BME280;68544;45.566;10.238;2023-04-30T02:51:53;99618.28;;;18.15;59.46
79138;BME280;68544;45.566;10.238;2023-04-30T02:54:18;99616.88;;;18.13;59.47
79138;BME280;68544;45.566;10.238;2023-04-30T02:56:44;99626.75;;;18.14;59.57
79138;BME280;68544;45.566;10.238;2023-04-30T02:59:10;99626.84;;;18.19;59.46
79138;BME280;68544;45.566;10.238;2023-04-30T03:01:35;99624.84;;;18.14;59.56
79138;BME280;68544;45.566;10.238;2023-04-30T03:04:01;99630.06;;;18.16;59.56
79138;BME280;68544;45.566;10.238;2023-04-30T03:06:28;99626.41;;;18.10;59.24
79138;BME280;68544;45.566;10.238;2023-04-30T03:08:53;99632.16;;;17.97;59.26
79138;BME280;68544;45.566;10.238;2023-04-30T03:11:19;99625.97;;;18.02;59.09
79138;BME280;68544;45.566;10.238;2023-04-30T03:13:44;99629.00;;;17.89;58.93
79138;BME280;68544;45.566;10.238;2023-04-30T03:16:09;99625.44;;;17.88;59.01
79138;BME280;68544;45.566;10.238;2023-04-30T03:18:35;99636.19;;;17.67;60.06
79138;BME280;68544;45.566;10.238;2023-04-30T03:21:00;99624.78;;;17.70;60.09
79138;BME280;68544;45.566;10.238;2023-04-30T03:23:26;99635.91;;;17.80;59.68
79138;BME280;68544;45.566;10.238;2023-04-30T03:25:52;99642.06;;;17.87;59.37
79138;BME280;68544;45.566;10.238;2023-04-30T03:28:17;99639.34;;;17.75;59.80
79138;BME280;68544;45.566;10.238;2023-04-30T03:30:43;99642.97;;;17.64;59.98
79138;BME280;68544;45.566;10.238;2023-04-30T03:33:08;99640.13;;;17.71;60.01
79138;BME280;68544;45.566;10.238;2023-04-30T03:35:34;99633.75;;;17.82;59.97
79138;BME280;68544;45.566;10.238;2023-04-30T03:38:00;99635.75;;;17.58;61.39
79138;BME280;68544;45.566;10.238;2023-04-30T03:40:26;99634.81;;;17.53;61.66
79138;BME280;68544;45.566;10.238;2023-04-30T03:42:51;99636.94;;;17.51;62.49
79138;BME280;68544;45.566;10.238;2023-04-30T03:45:17;99637.75;;;17.39;63.27
79138;BME280;68544;45.566;10.238;2023-04-30T03:47:42;99634.44;;;17.37;63.21
79138;BME280;68544;45.566;10.238;2023-04-30T03:50:08;99635.63;;;17.42;62.99
79138;BME280;68544;45.566;10.238;2023-04-30T03:52:33;99638.03;;;17.26;63.78
79138;BME280;68544;45.566;10.238;2023-04-30T03:55:00;99636.00;;;17.33;63.53
79138;BME280;68544;45.566;10.238;2023-04-30T03:57:26;99643.00;;;17.29;63.69
79138;BME280;68544;45.566;10.238;2023-04-30T03:59:51;99640.97;;;17.36;63.17
79138;BME280;68544;45.566;10.238;2023-04-30T04:02:16;99647.50;;;17.47;62.72
79138;BME280;68544;45.566;10.238;2023-04-30T04:04:42;99655.00;;;17.52;62.21
79138;BME280;68544;45.566;10.238;2023-04-30T04:07:08;99658.53;;;17.41;62.10
79138;BME280;68544;45.566;10.238;2023-04-30T04:09:35;99650.47;;;17.46;61.90
79138;BME280;68544;45.566;10.238;2023-04-30T04:12:00;99657.16;;;17.50;61.88
79138;BME280;68544;45.566;10.238;2023-04-30T04:14:27;99660.34;;;17.58;61.61
79138;BME280;68544;45.566;10.238;2023-04-30T04:16:52;99667.09;;;17.32;62.93
79138;BME280;68544;45.566;10.238;2023-04-30T04:19:17;99660.59;;;17.22;63.20
79138;BME280;68544;45.566;10.238;2023-04-30T04:21:43;99667.34;;;17.19;62.94
79138;BME280;68544;45.566;10.238;2023-04-30T04:24:08;99664.72;;;17.36;62.54
79138;BME280;68544;45.566;10.238;2023-04-30T04:26:34;99667.56;;;17.53;61.93
79138;BME280;68544;45.566;10.238;2023-04-30T04:29:00;99671.47;;;17.57;61.94
79138;BME280;68544;45.566;10.238;2023-04-30T04:31:26;99682.00;;;17.65;61.90
79138;BME280;68544;45.566;10.238;2023-04-30T04:33:52;99680.38;;;17.64;61.69
79138;BME280;68544;45.566;10.238;2023-04-30T04:36:22;99678.59;;;17.58;61.63
79138;BME280;68544;45.566;10.238;2023-04-30T04:38:47;99681.91;;;17.48;62.02
79138;BME280;68544;45.566;10.238;2023-04-30T04:41:13;99678.03;;;17.32;62.56
79138;BME280;68544;45.566;10.238;2023-04-30T04:43:38;99672.91;;;17.36;62.38
79138;BME280;68544;45.566;10.238;2023-04-30T04:46:04;99674.00;;;17.35;61.93
79138;BME280;68544;45.566;10.238;2023-04-30T04:48:29;99674.81;;;17.24;62.24
79138;BME280;68544;45.566;10.238;2023-04-30T04:50:55;99675.78;;;17.18;62.82
79138;BME280;68544;45.566;10.238;2023-04-30T04:53:20;99669.84;;;17.09;63.22
79138;BME280;68544;45.566;10.238;2023-04-30T04:55:45;99681.44;;;17.16;62.67
79138;BME280;68544;45.566;10.238;2023-04-30T04:58:11;99681.69;;;17.26;62.47
79138;BME280;68544;45.566;10.238;2023-04-30T05:00:37;99679.69;;;17.22;62.59
79138;BME280;68544;45.566;10.238;2023-04-30T05:03:03;99679.56;;;17.28;62.48
79138;BME280;68544;45.566;10.238;2023-04-30T05:05:28;99690.38;;;17.35;62.13
79138;BME280;68544;45.566;10.238;2023-04-30T05:07:54;99689.63;;;17.63;60.85
79138;BME280;68544;45.566;10.238;2023-04-30T05:10:19;99687.47;;;17.65;61.05
79138;BME280;68544;45.566;10.238;2023-04-30T05:12:45;99690.06;;;17.83;60.23
79138;BME280;68544;45.566;10.238;2023-04-30T05:15:11;99692.22;;;17.81;60.20
79138;BME280;68544;45.566;10.238;2023-04-30T05:17:36;99686.81;;;17.97;60.05
79138;BME280;68544;45.566;10.238;2023-04-30T05:20:01;99701.06;;;17.88;60.10
79138;BME280;68544;45.566;10.238;2023-04-30T05:22:27;99694.16;;;17.97;60.35
79138;BME280;68544;45.566;10.238;2023-04-30T05:24:52;99703.53;;;18.01;60.43
79138;BME280;68544;45.566;10.238;2023-04-30T05:27:18;99690.44;;;18.14;59.22
79138;BME280;68544;45.566;10.238;2023-04-30T05:29:43;99672.41;;;18.02;59.87
79138;BME280;68544;45.566;10.238;2023-04-30T05:32:08;99690.19;;;18.16;59.75
79138;BME280;68544;45.566;10.238;2023-04-30T05:34:34;99692.81;;;18.11;60.50
79138;BME280;68544;45.566;10.238;2023-04-30T05:36:59;99695.44;;;18.06;60.86
79138;BME280;68544;45.566;10.238;2023-04-30T05:39:25;99700.13;;;17.94;61.33
79138;BME280;68544;45.566;10.238;2023-04-30T05:41:51;99694.22;;;18.13;60.89
79138;BME280;68544;45.566;10.238;2023-04-30T05:44:16;99690.44;;;18.14;60.84
79138;BME280;68544;45.566;10.238;2023-04-30T05:46:41;99694.78;;;18.27;60.49
79138;BME280;68544;45.566;10.238;2023-04-30T05:49:07;99697.59;;;18.32;60.17
79138;BME280;68544;45.566;10.238;2023-04-30T05:51:33;99705.19;;;18.30;60.03
79138;BME280;68544;45.566;10.238;2023-04-30T05:53:58;99697.69;;;18.37;59.63
79138;BME280;68544;45.566;10.238;2023-04-30T05:56:24;99711.00;;;18.45;59.77
79138;BME280;68544;45.566;10.238;2023-04-30T05:58:50;99702.38;;;18.53;59.04
79138;BME280;68544;45.566;10.238;2023-04-30T06:01:17;99706.72;;;18.66;58.84
79138;BME280;68544;45.566;10.238;2023-04-30T06:03:43;99706.38;;;18.62;58.88
79138;BME280;68544;45.566;10.238;2023-04-30T06:06:08;99709.53;;;18.54;59.75
79138;BME280;68544;45.566;10.238;2023-04-30T06:08:34;99722.78;;;18.62;59.46
79138;BME280;68544;45.566;10.238;2023-04-30T06:10:59;99719.47;;;18.60;59.26
79138;BME280;68544;45.566;10.238;2023-04-30T06:13:25;99723.22;;;18.71;58.88
79138;BME280;68544;45.566;10.238;2023-04-30T06:15:50;99725.06;;;18.65;59.33
79138;BME280;68544;45.566;10.238;2023-04-30T06:18:15;99726.59;;;18.61;59.61
79138;BME280;68544;45.566;10.238;2023-04-30T06:20:41;99720.13;;;18.51;60.26
79138;BME280;68544;45.566;10.238;2023-04-30T06:23:07;99719.50;;;18.93;59.10
79138;BME280;68544;45.566;10.238;2023-04-30T06:25:33;99722.34;;;18.82;59.53
79138;BME280;68544;45.566;10.238;2023-04-30T06:27:58;99717.50;;;19.06;58.85
79138;BME280;68544;45.566;10.238;2023-04-30T06:30:23;99699.34;;;19.00;58.73
79138;BME280;68544;45.566;10.238;2023-04-30T06:32:49;99713.69;;;19.23;58.41
79138;BME280;68544;45.566;10.238;2023-04-30T06:35:14;99715.00;;;19.21;58.73
79138;BME280;68544;45.566;10.238;2023-04-30T06:37:39;99719.44;;;19.22;58.70
79138;BME280;68544;45.566;10.238;2023-04-30T06:40:05;99721.16;;;19.28;58.55
79138;BME280;68544;45.566;10.238;2023-04-30T06:42:31;99720.84;;;19.41;57.96
79138;BME280;68544;45.566;10.238;2023-04-30T06:45:01;99713.34;;;19.53;57.38
79138;BME280;68544;45.566;10.238;2023-04-30T06:47:28;99718.91;;;19.58;57.69
79138;BME280;68544;45.566;10.238;2023-04-30T06:49:58;99721.66;;;19.58;57.47
79138;BME280;68544;45.566;10.238;2023-04-30T06:52:24;99723.28;;;19.59;57.11
79138;BME280;68544;45.566;10.238;2023-04-30T06:54:49;99720.41;;;19.87;56.01
79138;BME280;68544;45.566;10.238;2023-04-30T06:57:15;99726.88;;;20.03;55.48
79138;BME280;68544;45.566;10.238;2023-04-30T06:59:40;99727.28;;;20.11;55.71
79138;BME280;68544;45.566;10.238;2023-04-30T07:02:05;99726.78;;;20.14;55.28
79138;BME280;68544;45.566;10.238;2023-04-30T07:04:31;99725.44;;;20.17;56.04
79138;BME280;68544;45.566;10.238;2023-04-30T07:06:56;99728.75;;;20.19;56.11
79138;BME280;68544;45.566;10.238;2023-04-30T07:09:22;99735.94;;;20.03;56.08
79138;BME280;68544;45.566;10.238;2023-04-30T07:11:47;99728.25;;;20.48;54.35
79138;BME280;68544;45.566;10.238;2023-04-30T07:14:13;99727.56;;;20.58;54.14
79138;BME280;68544;45.566;10.238;2023-04-30T07:16:38;99724.53;;;20.60;54.25
79138;BME280;68544;45.566;10.238;2023-04-30T07:19:03;99731.50;;;20.67;54.12
79138;BME280;68544;45.566;10.238;2023-04-30T07:21:29;99727.31;;;20.91;53.58
79138;BME280;68544;45.566;10.238;2023-04-30T07:23:56;99730.03;;;21.18;53.06
79138;BME280;68544;45.566;10.238;2023-04-30T07:26:21;99734.59;;;21.39;52.17
79138;BME280;68544;45.566;10.238;2023-04-30T07:28:49;99726.44;;;21.54;51.49
79138;BME280;68544;45.566;10.238;2023-04-30T07:31:15;99734.84;;;21.79;50.29
79138;BME280;68544;45.566;10.238;2023-04-30T07:33:40;99730.69;;;22.34;48.73
79138;BME280;68544;45.566;10.238;2023-04-30T07:36:06;99720.38;;;23.01;46.55
79138;BME280;68544;45.566;10.238;2023-04-30T07:38:31;99725.88;;;23.51;44.24
79138;BME280;68544;45.566;10.238;2023-04-30T07:40:57;99722.75;;;24.57;41.48
79138;BME280;68544;45.566;10.238;2023-04-30T07:43:22;99729.41;;;25.00;39.92
79138;BME280;68544;45.566;10.238;2023-04-30T07:45:48;99730.03;;;26.30;37.10
79138;BME280;68544;45.566;10.238;2023-04-30T07:48:14;99714.53;;;27.95;32.47
79138;BME280;68544;45.566;10.238;2023-04-30T07:50:39;99723.00;;;29.16;30.41
79138;BME280;68544;45.566;10.238;2023-04-30T07:53:04;99715.41;;;30.22;27.96
79138;BME280;68544;45.566;10.238;2023-04-30T07:55:33;99717.97;;;31.27;26.01
79138;BME280;68544;45.566;10.238;2023-04-30T07:57:58;99718.47;;;31.11;25.90
79138;BME280;68544;45.566;10.238;2023-04-30T08:00:24;99698.44;;;31.27;24.88
79138;BME280;68544;45.566;10.238;2023-04-30T08:02:50;99712.44;;;31.81;23.89
79138;BME280;68544;45.566;10.238;2023-04-30T08:05:15;99714.22;;;31.86;23.71
79138;BME280;68544;45.566;10.238;2023-04-30T08:07:41;99712.44;;;32.98;22.43
79138;BME280;68544;45.566;10.238;2023-04-30T08:10:08;99707.59;;;33.85;20.92
79138;BME280;68544;45.566;10.238;2023-04-30T08:12:37;99708.97;;;33.55;21.99
79138;BME280;68544;45.566;10.238;2023-04-30T08:15:04;99712.06;;;31.02;26.05
79138;BME280;68544;45.566;10.238;2023-04-30T08:17:31;99705.72;;;30.20;26.62
79138;BME280;68544;45.566;10.238;2023-04-30T08:19:56;99705.50;;;29.99;26.73
79138;BME280;68544;45.566;10.238;2023-04-30T08:22:22;99695.16;;;30.00;26.71
79138;BME280;68544;45.566;10.238;2023-04-30T08:24:47;99704.84;;;30.02;26.25
79138;BME280;68544;45.566;10.238;2023-04-30T08:27:12;99697.38;;;30.20;26.00
79138;BME280;68544;45.566;10.238;2023-04-30T08:29:38;99690.22;;;30.36;25.51
79138;BME280;68544;45.566;10.238;2023-04-30T08:32:03;99700.31;;;30.23;26.06
79138;BME280;68544;45.566;10.238;2023-04-30T08:34:30;99698.69;;;30.22;25.81
79138;BME280;68544;45.566;10.238;2023-04-30T08:36:55;99702.06;;;30.76;24.62
79138;BME280;68544;45.566;10.238;2023-04-30T08:39:20;99701.31;;;32.40;21.47
79138;BME280;68544;45.566;10.238;2023-04-30T08:41:54;99696.09;;;35.26;17.70
79138;BME280;68544;45.566;10.238;2023-04-30T08:44:25;99702.97;;;36.85;16.36
79138;BME280;68544;45.566;10.238;2023-04-30T08:46:53;99704.47;;;36.63;15.98
79138;BME280;68544;45.566;10.238;2023-04-30T08:49:20;99701.75;;;37.20;15.69
79138;BME280;68544;45.566;10.238;2023-04-30T08:51:46;99696.16;;;37.43;14.70
79138;BME280;68544;45.566;10.238;2023-04-30T08:54:12;99695.66;;;38.51;13.94
79138;BME280;68544;45.566;10.238;2023-04-30T08:56:39;99701.41;;;36.37;15.66
79138;BME280;68544;45.566;10.238;2023-04-30T08:59:05;99698.47;;;38.02;13.83
79138;BME280;68544;45.566;10.238;2023-04-30T09:01:30;99701.44;;;38.35;13.74
79138;BME280;68544;45.566;10.238;2023-04-30T09:03:56;99706.22;;;39.13;12.87
79138;BME280;68544;45.566;10.238;2023-04-30T09:06:21;99710.53;;;33.43;19.03
79138;BME280;68544;45.566;10.238;2023-04-30T09:08:48;99696.53;;;32.40;20.19
79138;BME280;68544;45.566;10.238;2023-04-30T09:11:27;99713.69;;;30.69;23.01
79138;BME280;68544;45.566;10.238;2023-04-30T09:14:00;99712.72;;;30.74;22.95
79138;BME280;68544;45.566;10.238;2023-04-30T09:16:28;99709.72;;;30.36;23.46
79138;BME280;68544;45.566;10.238;2023-04-30T09:18:57;99698.31;;;30.07;23.73
79138;BME280;68544;45.566;10.238;2023-04-30T09:21:31;99698.03;;;29.25;24.77
79138;BME280;68544;45.566;10.238;2023-04-30T09:23:59;99710.63;;;30.23;23.59
79138;BME280;68544;45.566;10.238;2023-04-30T09:26:32;99695.50;;;30.63;23.05
79138;BME280;68544;45.566;10.238;2023-04-30T09:28:58;99693.16;;;33.17;19.77
79138;BME280;68544;45.566;10.238;2023-04-30T09:31:24;99700.25;;;32.94;20.30
79138;BME280;68544;45.566;10.238;2023-04-30T09:33:51;99702.22;;;30.62;23.39
79138;BME280;68544;45.566;10.238;2023-04-30T09:36:16;99685.47;;;29.58;26.04
79138;BME280;68544;45.566;10.238;2023-04-30T09:38:42;99706.31;;;29.16;26.67
79138;BME280;68544;45.566;10.238;2023-04-30T09:41:20;99704.28;;;29.30;26.41
79138;BME280;68544;45.566;10.238;2023-04-30T09:43:47;99702.75;;;27.76;29.10
79138;BME280;68544;45.566;10.238;2023-04-30T09:46:13;99711.59;;;25.97;31.84
79138;BME280;68544;45.566;10.238;2023-04-30T09:48:40;99719.94;;;25.92;32.52
79138;BME280;68544;45.566;10.238;2023-04-30T09:51:08;99707.94;;;25.21;33.35
79138;BME280;68544;45.566;10.238;2023-04-30T09:53:36;99703.59;;;25.09;33.83
79138;BME280;68544;45.566;10.238;2023-04-30T09:56:06;99716.59;;;24.75;34.73
79138;BME280;68544;45.566;10.238;2023-04-30T09:58:35;99712.41;;;24.34;35.05
79138;BME280;68544;45.566;10.238;2023-04-30T10:01:04;99701.56;;;24.48;34.87
79138;BME280;68544;45.566;10.238;2023-04-30T10:03:31;99696.34;;;24.85;34.28
79138;BME280;68544;45.566;10.238;2023-04-30T10:05:58;99702.59;;;25.00;34.06
79138;BME280;68544;45.566;10.238;2023-04-30T10:08:29;99699.03;;;24.56;34.27
79138;BME280;68544;45.566;10.238;2023-04-30T10:11:06;99691.66;;;24.42;34.45
79138;BME280;68544;45.566;10.238;2023-04-30T10:16:37;99703.16;;;24.05;35.20
79138;BME280;68544;45.566;10.238;2023-04-30T10:19:07;99694.75;;;24.30;35.51
79138;BME280;68544;45.566;10.238;2023-04-30T10:21:35;99696.00;;;23.94;36.37
79138;BME280;68544;45.566;10.238;2023-04-30T10:24:03;99688.78;;;24.13;36.36
79138;BME280;68544;45.566;10.238;2023-04-30T10:26:29;99685.91;;;24.33;35.41
79138;BME280;68544;45.566;10.238;2023-04-30T10:28:55;99668.22;;;24.39;35.52
79138;BME280;68544;45.566;10.238;2023-04-30T10:31:23;99678.16;;;24.84;35.11
79138;BME280;68544;45.566;10.238;2023-04-30T10:36:45;99673.94;;;24.91;35.29
79138;BME280;68544;45.566;10.238;2023-04-30T10:39:18;99684.16;;;23.83;38.09
79138;BME280;68544;45.566;10.238;2023-04-30T10:41:45;99672.88;;;23.85;37.29
79138;BME280;68544;45.566;10.238;2023-04-30T10:44:14;99675.72;;;24.67;35.98
79138;BME280;68544;45.566;10.238;2023-04-30T10:46:40;99668.38;;;24.58;36.16
79138;BME280;68544;45.566;10.238;2023-04-30T10:49:06;99664.38;;;24.35;37.08
79138;BME280;68544;45.566;10.238;2023-04-30T10:51:58;99670.53;;;24.22;36.33
79138;BME280;68544;45.566;10.238;2023-04-30T10:54:27;99656.03;;;24.45;36.12
79138;BME280;68544;45.566;10.238;2023-04-30T10:56:53;99669.03;;;23.81;38.53
79138;BME280;68544;45.566;10.238;2023-04-30T10:59:21;99666.84;;;23.73;37.82
79138;BME280;68544;45.566;10.238;2023-04-30T11:01:55;99666.28;;;23.76;37.68
79138;BME280;68544;45.566;10.238;2023-04-30T11:04:22;99657.78;;;24.31;36.65
79138;BME280;68544;45.566;10.238;2023-04-30T11:06:49;99659.41;;;24.37;37.29
79138;BME280;68544;45.566;10.238;2023-04-30T11:09:23;99659.25;;;24.13;36.42
79138;BME280;68544;45.566;10.238;2023-04-30T11:12:03;99657.38;;;23.94;36.83
79138;BME280;68544;45.566;10.238;2023-04-30T11:14:31;99666.09;;;24.21;36.81
79138;BME280;68544;45.566;10.238;2023-04-30T11:16:58;99657.38;;;24.04;37.68
79138;BME280;68544;45.566;10.238;2023-04-30T11:19:26;99653.97;;;24.17;36.71
79138;BME280;68544;45.566;10.238;2023-04-30T11:29:46;99634.09;;;24.59;36.51
79138;BME280;68544;45.566;10.238;2023-04-30T11:32:13;99643.13;;;24.69;35.86
79138;BME280;68544;45.566;10.238;2023-04-30T11:34:39;99635.25;;;24.53;36.09
79138;BME280;68544;45.566;10.238;2023-04-30T11:37:08;99642.03;;;24.75;36.05
79138;BME280;68544;45.566;10.238;2023-04-30T11:39:37;99637.81;;;24.83;35.62
79138;BME280;68544;45.566;10.238;2023-04-30T11:42:03;99635.50;;;25.24;34.99
79138;BME280;68544;45.566;10.238;2023-04-30T11:44:28;99642.78;;;24.86;35.67
79138;BME280;68544;45.566;10.238;2023-04-30T11:46:54;99635.66;;;24.36;36.29
79138;BME280;68544;45.566;10.238;2023-04-30T11:49:19;99631.09;;;24.55;35.69
79138;BME280;68544;45.566;10.238;2023-04-30T11:51:47;99620.81;;;24.66;35.82
79138;BME280;68544;45.566;10.238;2023-04-30T11:54:13;99627.75;;;24.97;35.83
79138;BME280;68544;45.566;10.238;2023-04-30T11:56:39;99628.69;;;24.82;35.26
79138;BME280;68544;45.566;10.238;2023-04-30T11:59:10;99630.22;;;24.98;35.85
79138;BME280;68544;45.566;10.238;2023-04-30T12:01:36;99630.81;;;24.57;36.08
79138;BME280;68544;45.566;10.238;2023-04-30T12:04:01;99627.47;;;24.60;35.43
79138;BME280;68544;45.566;10.238;2023-04-30T12:06:30;99606.66;;;24.77;34.32
79138;BME280;68544;45.566;10.238;2023-04-30T12:08:57;99624.28;;;24.48;33.55
79138;BME280;68544;45.566;10.238;2023-04-30T12:11:33;99631.63;;;24.57;33.86
79138;BME280;68544;45.566;10.238;2023-04-30T12:14:04;99638.56;;;24.11;34.73
79138;BME280;68544;45.566;10.238;2023-04-30T12:16:46;99636.50;;;23.78;35.22
79138;BME280;68544;45.566;10.238;2023-04-30T12:19:15;99625.47;;;24.31;34.61
79138;BME280;68544;45.566;10.238;2023-04-30T12:21:43;99625.69;;;24.40;33.91
79138;BME280;68544;45.566;10.238;2023-04-30T12:24:13;99620.66;;;24.52;33.51
79138;BME280;68544;45.566;10.238;2023-04-30T12:26:39;99623.38;;;24.13;34.39
79138;BME280;68544;45.566;10.238;2023-04-30T12:29:16;99616.53;;;24.06;35.09
79138;BME280;68544;45.566;10.238;2023-04-30T12:31:42;99624.66;;;24.31;34.13
79138;BME280;68544;45.566;10.238;2023-04-30T12:34:08;99619.91;;;24.42;33.04
79138;BME280;68544;45.566;10.238;2023-04-30T12:36:34;99615.31;;;24.27;33.78
79138;BME280;68544;45.566;10.238;2023-04-30T12:39:07;99626.16;;;24.08;33.84
79138;BME280;68544;45.566;10.238;2023-04-30T12:41:39;99607.13;;;24.07;34.07
79138;BME280;68544;45.566;10.238;2023-04-30T12:46:43;99619.53;;;24.53;32.84
79138;BME280;68544;45.566;10.238;2023-04-30T12:49:10;99628.59;;;24.20;32.47
79138;BME280;68544;45.566;10.238;2023-04-30T12:51:36;99622.50;;;23.59;33.87
79138;BME280;68544;45.566;10.238;2023-04-30T12:54:04;99629.22;;;24.07;32.79
79138;BME280;68544;45.566;10.238;2023-04-30T12:56:29;99612.44;;;23.93;33.07
79138;BME280;68544;45.566;10.238;2023-04-30T12:58:55;99614.94;;;23.90;33.15
79138;BME280;68544;45.566;10.238;2023-04-30T13:01:21;99611.41;;;24.33;32.05
79138;BME280;68544;45.566;10.238;2023-04-30T13:03:50;99602.28;;;24.33;32.08
79138;BME280;68544;45.566;10.238;2023-04-30T13:06:16;99598.06;;;24.45;31.52
79138;BME280;68544;45.566;10.238;2023-04-30T13:08:42;99602.28;;;24.33;32.23
79138;BME280;68544;45.566;10.238;2023-04-30T13:11:08;99603.66;;;24.35;32.16
79138;BME280;68544;45.566;10.238;2023-04-30T13:13:33;99592.28;;;24.42;32.12
79138;BME280;68544;45.566;10.238;2023-04-30T13:15:59;99584.59;;;24.33;31.74
79138;BME280;68544;45.566;10.238;2023-04-30T13:18:24;99616.97;;;24.23;32.86
79138;BME280;68544;45.566;10.238;2023-04-30T13:20:49;99607.13;;;24.12;32.91
79138;BME280;68544;45.566;10.238;2023-04-30T13:23:15;99599.88;;;24.21;32.77
79138;BME280;68544;45.566;10.238;2023-04-30T13:25:41;99572.34;;;24.11;33.67